createdAt,value
2023-05-24T00:00:15.535Z,0.00
2023-05-24T00:00:49.940Z,0.00
2023-05-24T00:01:15.273Z,0.00
2023-05-24T00:01:45.817Z,0.00
2023-05-24T00:02:16.647Z,0.00
2023-05-24T00:02:48.260Z,0.00
2023-05-24T00:03:19.198Z,0.00
2023-05-24T00:03:50.430Z,0.00
2023-05-24T00:04:20.690Z,0.00
2023-05-24T00:04:53.302Z,0.00
2023-05-24T00:05:23.307Z,0.00
2023-05-24T00:05:54.348Z,0.00
2023-05-24T00:06:24.642Z,0.00
2023-05-24T00:06:56.260Z,0.00
2023-05-24T00:07:26.522Z,0.00
2023-05-24T00:07:58.223Z,0.00
2023-05-24T00:08:28.508Z,0.00
2023-05-24T00:09:00.403Z,0.00
2023-05-24T00:09:30.551Z,0.00
2023-05-24T00:10:09.462Z,0.00
2023-05-24T00:10:33.220Z,0.00
2023-05-24T00:11:03.604Z,0.00
2023-05-24T00:11:35.299Z,0.00
2023-05-24T00:12:05.484Z,0.00
2023-05-24T00:12:37.426Z,0.00
2023-05-24T00:13:07.600Z,0.00
2023-05-24T00:13:39.199Z,0.00
2023-05-24T00:14:09.511Z,0.00
2023-05-24T00:14:41.454Z,0.00
2023-05-24T00:15:14.348Z,0.00
2023-05-24T00:15:43.609Z,0.00
2023-05-24T00:16:13.562Z,0.00
2023-05-24T00:16:45.294Z,0.00
2023-05-24T00:17:15.470Z,0.00
2023-05-24T00:17:47.407Z,0.00
2023-05-24T00:18:18.203Z,0.00
2023-05-24T00:18:49.348Z,0.00
2023-05-24T00:19:19.791Z,0.00
2023-05-24T00:19:51.268Z,0.00
2023-05-24T00:20:23.113Z,0.00
2023-05-24T00:20:53.880Z,0.00
2023-05-24T00:21:23.708Z,0.00
2023-05-24T00:21:55.187Z,0.00
2023-05-24T00:22:25.507Z,0.00
2023-05-24T00:22:57.236Z,0.00
2023-05-24T00:23:27.553Z,0.00
2023-05-24T00:23:59.280Z,0.00
2023-05-24T00:24:29.544Z,0.00
2023-05-24T00:25:02.694Z,0.00
2023-05-24T00:25:32.759Z,0.00
2023-05-24T00:26:03.583Z,0.00
2023-05-24T00:26:33.526Z,0.00
2023-05-24T00:27:05.233Z,0.00
2023-05-24T00:27:35.492Z,0.00
2023-05-24T00:28:07.299Z,0.00
2023-05-24T00:28:37.631Z,0.00
2023-05-24T00:29:09.350Z,0.00
2023-05-24T00:29:39.652Z,0.00
2023-05-24T00:30:13.825Z,0.00
2023-05-24T00:30:43.366Z,0.00
2023-05-24T00:31:13.533Z,0.00
2023-05-24T00:31:44.382Z,0.00
2023-05-24T00:32:15.244Z,0.00
2023-05-24T00:32:45.559Z,0.00
2023-05-24T00:33:17.348Z,0.00
2023-05-24T00:33:47.575Z,0.00
2023-05-24T00:34:19.865Z,0.00
2023-05-24T00:34:49.496Z,0.00
2023-05-24T00:35:21.913Z,0.00
2023-05-24T00:35:52.583Z,0.00
2023-05-24T00:36:23.487Z,0.00
2023-05-24T00:36:53.710Z,0.00
2023-05-24T00:37:25.213Z,0.00
2023-05-24T00:37:55.518Z,0.00
2023-05-24T00:38:27.424Z,0.00
2023-05-24T00:38:57.559Z,0.00
2023-05-24T00:39:29.417Z,0.00
2023-05-24T00:39:59.500Z,0.00
2023-05-24T00:40:40.612Z,0.00
2023-05-24T00:41:19.198Z,0.00
2023-05-24T00:41:33.231Z,0.00
2023-05-24T00:42:03.572Z,0.00
2023-05-24T00:42:35.183Z,0.00
2023-05-24T00:43:05.527Z,0.00
2023-05-24T00:43:37.498Z,0.00
2023-05-24T00:44:07.875Z,0.00
2023-05-24T00:44:39.325Z,0.00
2023-05-24T00:45:11.653Z,0.00
2023-05-24T00:45:41.373Z,0.00
2023-05-24T00:46:12.961Z,0.00
2023-05-24T00:46:43.625Z,0.00
2023-05-24T00:47:13.601Z,0.00
2023-05-24T00:47:46.370Z,0.00
2023-05-24T00:48:15.608Z,0.00
2023-05-24T00:48:47.262Z,0.00
2023-05-24T00:49:17.585Z,0.00
2023-05-24T00:49:49.291Z,0.00
2023-05-24T00:50:20.064Z,0.00
2023-05-24T00:50:51.555Z,0.00
2023-05-24T00:51:22.573Z,0.00
2023-05-24T00:51:53.434Z,0.00
2023-05-24T00:52:23.502Z,0.00
2023-05-24T00:52:55.258Z,0.00
2023-05-24T00:53:25.541Z,0.00
2023-05-24T00:53:57.281Z,0.00
2023-05-24T00:54:27.501Z,0.00
2023-05-24T00:54:59.217Z,0.00
2023-05-24T00:55:30.072Z,0.00
2023-05-24T00:56:01.506Z,0.00
2023-05-24T00:56:32.559Z,0.00
2023-05-24T00:57:03.842Z,0.00
2023-05-24T00:57:33.925Z,0.00
2023-05-24T00:58:05.265Z,0.00
2023-05-24T00:58:36.255Z,0.00
2023-05-24T00:59:07.432Z,0.00
2023-05-24T00:59:37.683Z,0.00
2023-05-24T01:00:10.973Z,0.00
2023-05-24T01:00:41.020Z,0.00
2023-05-24T01:01:12.042Z,0.00
2023-05-24T01:01:42.886Z,0.00
2023-05-24T01:02:13.036Z,0.00
2023-05-24T01:02:44.459Z,0.00
2023-05-24T01:03:14.806Z,0.00
2023-05-24T01:03:46.416Z,0.00
2023-05-24T01:04:16.570Z,0.00
2023-05-24T01:04:48.219Z,0.00
2023-05-24T01:05:19.826Z,0.00
2023-05-24T01:05:50.206Z,0.00
2023-05-24T01:06:20.547Z,0.00
2023-05-24T01:06:53.185Z,0.00
2023-05-24T01:07:22.897Z,0.00
2023-05-24T01:07:54.937Z,0.00
2023-05-24T01:08:24.519Z,0.00
2023-05-24T01:08:56.233Z,0.00
2023-05-24T01:09:26.514Z,0.00
2023-05-24T01:09:58.209Z,0.00
2023-05-24T01:10:29.046Z,0.00
2023-05-24T01:11:00.264Z,0.00
2023-05-24T01:11:30.493Z,0.00
2023-05-24T01:12:09.092Z,0.00
2023-05-24T01:12:33.268Z,0.00
2023-05-24T01:13:03.548Z,0.00
2023-05-24T01:13:36.222Z,0.00
2023-05-24T01:14:05.496Z,0.00
2023-05-24T01:14:38.259Z,0.00
2023-05-24T01:15:08.690Z,0.00
2023-05-24T01:15:39.304Z,0.00
2023-05-24T01:16:09.780Z,0.00
2023-05-24T01:16:41.228Z,0.00
2023-05-24T01:17:12.863Z,0.00
2023-05-24T01:17:43.550Z,0.00
2023-05-24T01:18:13.642Z,0.00
2023-05-24T01:18:45.618Z,0.00
2023-05-24T01:19:15.480Z,0.00
2023-05-24T01:19:47.194Z,0.00
2023-05-24T01:20:18.364Z,0.00
2023-05-24T01:20:50.244Z,0.00
2023-05-24T01:21:19.499Z,0.00
2023-05-24T01:21:51.252Z,0.00
2023-05-24T01:22:22.521Z,0.00
2023-05-24T01:22:53.319Z,0.00
2023-05-24T01:23:24.018Z,0.00
2023-05-24T01:23:55.191Z,0.00
2023-05-24T01:24:25.544Z,0.00
2023-05-24T01:24:57.229Z,0.00
2023-05-24T01:25:28.768Z,0.00
2023-05-24T01:25:59.195Z,0.00
2023-05-24T01:26:29.566Z,0.00
2023-05-24T01:27:02.338Z,0.00
2023-05-24T01:27:32.584Z,0.00
2023-05-24T01:28:04.091Z,0.00
2023-05-24T01:28:33.477Z,0.00
2023-05-24T01:29:05.205Z,0.00
2023-05-24T01:29:35.590Z,0.00
2023-05-24T01:30:08.638Z,0.00
2023-05-24T01:30:37.846Z,0.00
2023-05-24T01:31:09.221Z,0.00
2023-05-24T01:31:39.572Z,0.00
2023-05-24T01:32:11.482Z,0.00
2023-05-24T01:32:42.752Z,0.00
2023-05-24T01:33:13.726Z,0.00
2023-05-24T01:33:43.676Z,0.00
2023-05-24T01:34:15.210Z,0.00
2023-05-24T01:34:45.547Z,0.00
2023-05-24T01:35:17.852Z,0.00
2023-05-24T01:35:47.641Z,0.00
2023-05-24T01:36:19.223Z,0.00
2023-05-24T01:36:49.750Z,0.00
2023-05-24T01:37:21.231Z,0.00
2023-05-24T01:37:52.584Z,0.00
2023-05-24T01:38:23.497Z,0.00
2023-05-24T01:38:54.183Z,0.00
2023-05-24T01:39:25.201Z,0.00
2023-05-24T01:39:55.564Z,0.00
2023-05-24T01:40:41.696Z,0.00
2023-05-24T01:40:57.524Z,0.00
2023-05-24T01:41:29.193Z,0.00
2023-05-24T01:41:59.504Z,0.00
2023-05-24T01:42:31.215Z,0.00
2023-05-24T01:43:09.457Z,0.00
2023-05-24T01:43:33.224Z,0.00
2023-05-24T01:44:03.515Z,0.00
2023-05-24T01:44:35.176Z,0.00
2023-05-24T01:45:06.773Z,0.00
2023-05-24T01:45:38.085Z,0.00
2023-05-24T01:46:07.831Z,0.00
2023-05-24T01:46:39.512Z,0.00
2023-05-24T01:47:09.715Z,0.00
2023-05-24T01:47:41.238Z,0.00
2023-05-24T01:48:13.652Z,0.00
2023-05-24T01:48:43.618Z,0.00
2023-05-24T01:49:13.675Z,0.00
2023-05-24T01:49:45.225Z,0.00
2023-05-24T01:50:16.275Z,0.00
2023-05-24T01:50:47.319Z,0.00
2023-05-24T01:51:17.671Z,0.00
2023-05-24T01:51:49.314Z,0.00
2023-05-24T01:52:20.128Z,0.00
2023-05-24T01:52:51.200Z,0.00
2023-05-24T01:53:22.582Z,0.00
2023-05-24T01:53:53.217Z,0.00
2023-05-24T01:54:23.516Z,0.00
2023-05-24T01:54:55.235Z,0.00
2023-05-24T01:55:25.966Z,0.00
2023-05-24T01:55:57.526Z,0.00
2023-05-24T01:56:27.865Z,0.00
2023-05-24T01:56:59.200Z,0.00
2023-05-24T01:57:29.533Z,0.00
2023-05-24T01:58:01.561Z,0.00
2023-05-24T01:58:32.568Z,0.00
2023-05-24T01:59:03.851Z,0.00
2023-05-24T01:59:33.954Z,0.00
2023-05-24T02:00:07.407Z,0.00
2023-05-24T02:00:36.828Z,0.00
2023-05-24T02:01:08.693Z,0.00
2023-05-24T02:01:37.912Z,0.00
2023-05-24T02:02:08.577Z,0.00
2023-05-24T02:02:39.813Z,0.00
2023-05-24T02:03:11.244Z,0.00
2023-05-24T02:03:43.468Z,0.00
2023-05-24T02:04:13.610Z,0.00
2023-05-24T02:04:44.104Z,0.00
2023-05-24T02:05:15.904Z,0.00
2023-05-24T02:05:47.015Z,0.00
2023-05-24T02:06:17.664Z,0.00
2023-05-24T02:06:48.020Z,0.00
2023-05-24T02:07:19.219Z,0.00
2023-05-24T02:07:49.534Z,0.00
2023-05-24T02:08:21.231Z,0.00
2023-05-24T02:08:52.470Z,0.00
2023-05-24T02:09:23.580Z,0.00
2023-05-24T02:09:53.836Z,0.00
2023-05-24T02:10:25.701Z,0.00
2023-05-24T02:10:55.462Z,0.00
2023-05-24T02:11:27.194Z,0.00
2023-05-24T02:11:57.595Z,0.00
2023-05-24T02:12:29.758Z,0.00
2023-05-24T02:12:59.494Z,0.00
2023-05-24T02:13:31.182Z,0.00
2023-05-24T02:14:09.431Z,0.00
2023-05-24T02:14:33.179Z,0.00
2023-05-24T02:15:05.319Z,0.00
2023-05-24T02:15:36.189Z,0.00
2023-05-24T02:16:05.568Z,0.00
2023-05-24T02:16:38.043Z,0.00
2023-05-24T02:17:07.768Z,0.00
2023-05-24T02:17:39.236Z,0.00
2023-05-24T02:18:09.573Z,0.00
2023-05-24T02:18:41.204Z,0.00
2023-05-24T02:19:13.058Z,0.00
2023-05-24T02:19:43.510Z,0.00
2023-05-24T02:20:14.220Z,0.00
2023-05-24T02:20:45.918Z,0.00
2023-05-24T02:21:15.484Z,0.00
2023-05-24T02:21:47.422Z,0.00
2023-05-24T02:22:17.587Z,0.00
2023-05-24T02:22:49.209Z,0.00
2023-05-24T02:23:19.657Z,0.00
2023-05-24T02:23:51.204Z,0.00
2023-05-24T02:24:22.590Z,0.00
2023-05-24T02:24:53.197Z,0.00
2023-05-24T02:25:24.001Z,0.00
2023-05-24T02:25:55.685Z,0.00
2023-05-24T02:26:25.523Z,0.00
2023-05-24T02:26:57.223Z,0.00
2023-05-24T02:27:27.500Z,0.00
2023-05-24T02:27:59.207Z,0.00
2023-05-24T02:28:29.529Z,0.00
2023-05-24T02:29:01.300Z,0.00
2023-05-24T02:29:32.509Z,0.00
2023-05-24T02:30:04.559Z,0.00
2023-05-24T02:30:33.541Z,0.00
2023-05-24T02:31:05.234Z,0.00
2023-05-24T02:31:35.544Z,0.00
2023-05-24T02:32:07.436Z,0.00
2023-05-24T02:32:38.492Z,0.00
2023-05-24T02:33:09.230Z,0.00
2023-05-24T02:33:39.570Z,0.00
2023-05-24T02:34:11.205Z,0.00
2023-05-24T02:34:42.584Z,0.00
2023-05-24T02:35:14.750Z,0.00
2023-05-24T02:35:43.696Z,0.00
2023-05-24T02:36:15.247Z,0.00
2023-05-24T02:36:46.153Z,0.00
2023-05-24T02:37:17.262Z,0.00
2023-05-24T02:37:47.554Z,0.00
2023-05-24T02:38:19.231Z,0.00
2023-05-24T02:38:49.517Z,0.00
2023-05-24T02:39:21.761Z,0.00
2023-05-24T02:39:52.465Z,0.00
2023-05-24T02:40:24.789Z,0.00
2023-05-24T02:40:53.523Z,0.00
2023-05-24T02:41:25.269Z,0.00
2023-05-24T02:41:55.456Z,0.00
2023-05-24T02:42:27.209Z,0.00
2023-05-24T02:42:57.926Z,0.00
2023-05-24T02:43:29.309Z,0.00
2023-05-24T02:43:59.511Z,0.00
2023-05-24T02:44:31.204Z,0.00
2023-05-24T02:45:10.324Z,0.00
2023-05-24T02:45:33.252Z,0.00
2023-05-24T02:46:04.251Z,0.00
2023-05-24T02:46:35.220Z,0.00
2023-05-24T02:47:05.490Z,0.00
2023-05-24T02:47:38.050Z,0.00
2023-05-24T02:48:07.733Z,0.00
2023-05-24T02:48:39.180Z,0.00
2023-05-24T02:49:09.527Z,0.00
2023-05-24T02:49:41.834Z,0.00
2023-05-24T02:50:14.203Z,0.00
2023-05-24T02:50:44.269Z,0.00
2023-05-24T02:51:13.919Z,0.00
2023-05-24T02:51:45.879Z,0.00
2023-05-24T02:52:15.531Z,0.00
2023-05-24T02:52:48.065Z,0.00
2023-05-24T02:53:17.625Z,0.00
2023-05-24T02:53:49.197Z,0.00
2023-05-24T02:54:19.499Z,0.00
2023-05-24T02:54:51.617Z,0.00
2023-05-24T02:55:23.983Z,0.00
2023-05-24T02:55:53.173Z,0.00
2023-05-24T02:56:23.478Z,0.00
2023-05-24T02:56:55.156Z,0.00
2023-05-24T02:57:25.509Z,0.00
2023-05-24T02:57:57.178Z,0.00
2023-05-24T02:58:27.551Z,0.00
2023-05-24T02:58:59.167Z,0.00
2023-05-24T02:59:29.706Z,0.00
2023-05-24T03:00:03.393Z,0.00
2023-05-24T03:00:32.646Z,0.00
2023-05-24T03:01:03.781Z,0.00
2023-05-24T03:01:34.148Z,0.00
2023-05-24T03:02:04.866Z,0.00
2023-05-24T03:02:35.533Z,0.00
2023-05-24T03:03:07.464Z,0.00
2023-05-24T03:03:38.283Z,0.00
2023-05-24T03:04:09.305Z,0.00
2023-05-24T03:04:39.599Z,0.00
2023-05-24T03:05:12.016Z,0.00
2023-05-24T03:05:42.517Z,0.00
2023-05-24T03:06:14.522Z,0.00
2023-05-24T03:06:43.723Z,0.00
2023-05-24T03:07:15.316Z,0.00
2023-05-24T03:07:45.640Z,0.00
2023-05-24T03:08:17.292Z,0.00
2023-05-24T03:08:47.761Z,0.00
2023-05-24T03:09:19.561Z,0.00
2023-05-24T03:09:49.686Z,0.00
2023-05-24T03:10:21.769Z,0.00
2023-05-24T03:10:52.718Z,0.00
2023-05-24T03:11:23.874Z,0.00
2023-05-24T03:11:53.644Z,0.00
2023-05-24T03:12:25.228Z,0.00
2023-05-24T03:12:56.297Z,0.00
2023-05-24T03:13:27.515Z,0.00
2023-05-24T03:13:57.905Z,0.00
2023-05-24T03:14:29.194Z,0.00
2023-05-24T03:14:59.603Z,0.00
2023-05-24T03:15:32.881Z,0.00
2023-05-24T03:16:11.375Z,0.00
2023-05-24T03:16:33.233Z,0.00
2023-05-24T03:17:04.137Z,0.00
2023-05-24T03:17:35.631Z,0.00
2023-05-24T03:18:05.619Z,0.00
2023-05-24T03:18:37.516Z,0.00
2023-05-24T03:19:09.900Z,0.36
2023-05-24T03:19:39.886Z,0.00
2023-05-24T03:20:10.087Z,0.00
2023-05-24T03:20:42.010Z,0.00
2023-05-24T03:21:12.670Z,0.00
2023-05-24T03:21:44.454Z,1.22
2023-05-24T03:22:13.808Z,0.00
2023-05-24T03:22:45.272Z,0.00
2023-05-24T03:23:15.759Z,1.22
2023-05-24T03:23:47.397Z,0.85
2023-05-24T03:24:17.875Z,0.85
2023-05-24T03:24:49.672Z,1.22
2023-05-24T03:25:20.319Z,0.85
2023-05-24T03:25:51.446Z,1.22
2023-05-24T03:26:23.228Z,0.85
2023-05-24T03:26:53.614Z,1.22
2023-05-24T03:27:23.764Z,1.71
2023-05-24T03:27:55.502Z,2.08
2023-05-24T03:28:25.696Z,2.94
2023-05-24T03:28:57.376Z,2.08
2023-05-24T03:29:27.682Z,3.43
2023-05-24T03:29:59.352Z,2.94
2023-05-24T03:30:31.051Z,2.57
2023-05-24T03:31:01.466Z,3.43
2023-05-24T03:31:32.675Z,3.79
2023-05-24T03:32:03.910Z,3.43
2023-05-24T03:32:34.602Z,2.94
2023-05-24T03:33:06.122Z,3.43
2023-05-24T03:33:35.636Z,3.43
2023-05-24T03:34:07.525Z,3.79
2023-05-24T03:34:37.769Z,3.79
2023-05-24T03:35:09.842Z,3.79
2023-05-24T03:35:39.664Z,4.28
2023-05-24T03:36:11.341Z,4.28
2023-05-24T03:36:42.760Z,4.28
2023-05-24T03:37:13.569Z,5.14
2023-05-24T03:37:43.859Z,4.77
2023-05-24T03:38:15.331Z,4.77
2023-05-24T03:38:45.823Z,5.14
2023-05-24T03:39:17.399Z,5.63
2023-05-24T03:39:48.543Z,5.14
2023-05-24T03:40:19.816Z,5.14
2023-05-24T03:40:52.457Z,5.99
2023-05-24T03:41:21.401Z,5.99
2023-05-24T03:41:52.676Z,5.99
2023-05-24T03:42:23.684Z,7.34
2023-05-24T03:42:53.649Z,6.85
2023-05-24T03:43:25.337Z,7.70
2023-05-24T03:43:56.148Z,7.70
2023-05-24T03:44:27.335Z,9.05
2023-05-24T03:44:57.658Z,9.91
2023-05-24T03:45:38.396Z,10.39
2023-05-24T03:45:59.704Z,10.77
2023-05-24T03:46:32.109Z,10.77
2023-05-24T03:47:10.644Z,10.77
2023-05-24T03:47:33.433Z,12.48
2023-05-24T03:48:03.764Z,13.33
2023-05-24T03:48:35.350Z,13.33
2023-05-24T03:49:05.702Z,14.68
2023-05-24T03:49:37.579Z,14.31
2023-05-24T03:50:08.307Z,15.17
2023-05-24T03:50:39.322Z,15.53
2023-05-24T03:51:09.641Z,16.02
2023-05-24T03:51:41.352Z,16.88
2023-05-24T03:52:12.694Z,17.25
2023-05-24T03:52:43.788Z,17.73
2023-05-24T03:53:14.448Z,17.73
2023-05-24T03:53:45.370Z,18.11
2023-05-24T03:54:15.700Z,17.73
2023-05-24T03:54:47.392Z,18.11
2023-05-24T03:55:18.188Z,19.08
2023-05-24T03:55:49.364Z,19.08
2023-05-24T03:56:19.651Z,18.60
2023-05-24T03:56:51.463Z,19.08
2023-05-24T03:57:22.665Z,19.45
2023-05-24T03:57:53.374Z,19.08
2023-05-24T03:58:23.772Z,19.94
2023-05-24T03:58:55.348Z,20.31
2023-05-24T03:59:25.720Z,21.16
2023-05-24T03:59:58.014Z,20.31
2023-05-24T04:00:29.318Z,20.80
2023-05-24T04:01:04.653Z,20.31
2023-05-24T04:01:34.078Z,20.31
2023-05-24T04:02:00.889Z,20.80
2023-05-24T04:02:32.754Z,20.80
2023-05-24T04:03:03.776Z,20.31
2023-05-24T04:03:34.343Z,21.16
2023-05-24T04:04:05.571Z,21.65
2023-05-24T04:04:35.599Z,21.16
2023-05-24T04:05:08.207Z,22.51
2023-05-24T04:05:37.750Z,23.36
2023-05-24T04:06:09.320Z,24.22
2023-05-24T04:06:39.692Z,24.22
2023-05-24T04:07:11.317Z,23.85
2023-05-24T04:07:42.657Z,23.85
2023-05-24T04:08:13.671Z,23.36
2023-05-24T04:08:44.225Z,22.51
2023-05-24T04:09:16.816Z,23.36
2023-05-24T04:09:45.751Z,22.02
2023-05-24T04:10:17.959Z,22.02
2023-05-24T04:10:48.239Z,22.02
2023-05-24T04:11:19.358Z,22.02
2023-05-24T04:11:49.638Z,22.51
2023-05-24T04:12:21.374Z,22.87
2023-05-24T04:12:52.660Z,22.51
2023-05-24T04:13:24.288Z,22.51
2023-05-24T04:13:53.665Z,22.87
2023-05-24T04:14:25.586Z,24.22
2023-05-24T04:14:55.800Z,24.71
2023-05-24T04:15:28.226Z,24.22
2023-05-24T04:15:57.740Z,25.07
2023-05-24T04:16:29.403Z,25.07
2023-05-24T04:16:59.722Z,25.07
2023-05-24T04:17:31.553Z,25.07
2023-05-24T04:18:10.119Z,25.07
2023-05-24T04:18:33.419Z,25.07
2023-05-24T04:19:04.060Z,24.71
2023-05-24T04:19:36.284Z,24.22
2023-05-24T04:20:07.242Z,22.51
2023-05-24T04:20:41.493Z,21.65
2023-05-24T04:21:07.732Z,20.31
2023-05-24T04:21:39.344Z,20.80
2023-05-24T04:22:09.658Z,19.08
2023-05-24T04:22:41.376Z,20.31
2023-05-24T04:23:12.813Z,21.16
2023-05-24T04:23:43.688Z,22.87
2023-05-24T04:24:14.728Z,25.56
2023-05-24T04:24:45.451Z,28.63
2023-05-24T04:25:16.241Z,31.56
2023-05-24T04:25:47.357Z,33.39
2023-05-24T04:26:17.628Z,35.48
2023-05-24T04:26:50.325Z,36.82
2023-05-24T04:27:19.632Z,38.17
2023-05-24T04:27:51.440Z,39.88
2023-05-24T04:28:22.684Z,39.88
2023-05-24T04:28:53.373Z,41.96
2023-05-24T04:29:23.706Z,41.59
2023-05-24T04:29:55.329Z,41.96
2023-05-24T04:30:26.672Z,42.94
2023-05-24T04:30:57.405Z,43.80
2023-05-24T04:31:27.676Z,44.65
2023-05-24T04:31:59.349Z,46.36
2023-05-24T04:32:29.686Z,48.07
2023-05-24T04:33:01.484Z,48.93
2023-05-24T04:33:33.301Z,50.28
2023-05-24T04:34:03.865Z,51.50
2023-05-24T04:34:33.625Z,52.85
2023-05-24T04:35:06.289Z,53.70
2023-05-24T04:35:35.687Z,55.05
2023-05-24T04:36:07.493Z,54.56
2023-05-24T04:36:37.704Z,55.05
2023-05-24T04:37:09.441Z,54.19
2023-05-24T04:37:40.477Z,52.85
2023-05-24T04:38:11.325Z,51.99
2023-05-24T04:38:42.666Z,51.50
2023-05-24T04:39:13.444Z,52.48
2023-05-24T04:39:43.908Z,53.70
2023-05-24T04:40:16.497Z,54.19
2023-05-24T04:40:46.414Z,55.90
2023-05-24T04:41:17.388Z,57.62
2023-05-24T04:41:47.702Z,59.33
2023-05-24T04:42:19.367Z,61.53
2023-05-24T04:42:49.656Z,62.88
2023-05-24T04:43:21.417Z,64.96
2023-05-24T04:43:52.640Z,67.16
2023-05-24T04:44:23.898Z,70.22
2023-05-24T04:44:53.629Z,71.56
2023-05-24T04:45:26.506Z,73.65
2023-05-24T04:45:55.684Z,74.14
2023-05-24T04:46:27.391Z,76.34
2023-05-24T04:46:57.727Z,76.70
2023-05-24T04:47:29.352Z,77.56
2023-05-24T04:47:59.932Z,78.41
2023-05-24T04:48:31.349Z,78.05
2023-05-24T04:49:09.824Z,78.05
2023-05-24T04:49:33.380Z,78.41
2023-05-24T04:50:04.177Z,77.56
2023-05-24T04:50:35.322Z,77.19
2023-05-24T04:51:06.370Z,77.56
2023-05-24T04:51:37.477Z,77.19
2023-05-24T04:52:07.750Z,78.90
2023-05-24T04:52:39.334Z,79.27
2023-05-24T04:53:10.078Z,79.76
2023-05-24T04:53:41.980Z,81.10
2023-05-24T04:54:12.633Z,81.48
2023-05-24T04:54:43.803Z,82.82
2023-05-24T04:55:14.353Z,85.02
2023-05-24T04:55:45.304Z,87.10
2023-05-24T04:56:15.629Z,90.65
2023-05-24T04:56:47.327Z,91.87
2023-05-24T04:57:17.662Z,94.07
2023-05-24T04:57:49.613Z,95.42
2023-05-24T04:58:19.648Z,95.42
2023-05-24T04:58:51.321Z,94.56
2023-05-24T04:59:22.664Z,94.93
2023-05-24T04:59:53.353Z,93.58
2023-05-24T05:00:25.851Z,96.27
2023-05-24T05:01:01.853Z,97.13
2023-05-24T05:01:25.727Z,97.99
2023-05-24T05:01:56.742Z,101.05
2023-05-24T05:02:27.882Z,102.27
2023-05-24T05:02:59.477Z,105.33
2023-05-24T05:03:29.794Z,109.73
2023-05-24T05:04:01.599Z,108.39
2023-05-24T05:04:32.661Z,119.27
2023-05-24T05:05:04.186Z,117.44
2023-05-24T05:05:33.954Z,119.64
2023-05-24T05:06:05.384Z,114.02
2023-05-24T05:06:35.655Z,114.87
2023-05-24T05:07:08.344Z,117.07
2023-05-24T05:07:37.905Z,126.12
2023-05-24T05:08:09.365Z,117.44
2023-05-24T05:08:39.902Z,135.67
2023-05-24T05:09:11.500Z,124.41
2023-05-24T05:09:42.883Z,127.47
2023-05-24T05:10:14.388Z,115.36
2023-05-24T05:10:44.034Z,131.88
2023-05-24T05:11:15.659Z,129.19
2023-05-24T05:11:45.862Z,144.36
2023-05-24T05:12:17.665Z,154.75
2023-05-24T05:12:47.879Z,156.10
2023-05-24T05:13:20.532Z,161.73
2023-05-24T05:13:49.743Z,164.29
2023-05-24T05:14:21.522Z,158.67
2023-05-24T05:14:52.746Z,121.85
2023-05-24T05:15:24.764Z,147.90
2023-05-24T05:15:53.841Z,130.04
2023-05-24T05:16:25.482Z,135.30
2023-05-24T05:16:55.801Z,134.81
2023-05-24T05:17:27.484Z,138.36
2023-05-24T05:17:58.587Z,150.47
2023-05-24T05:18:29.574Z,180.44
2023-05-24T05:18:59.741Z,184.36
2023-05-24T05:19:31.433Z,181.30
2023-05-24T05:20:10.416Z,181.30
2023-05-24T05:20:43.054Z,141.78
2023-05-24T05:21:04.300Z,139.58
2023-05-24T05:21:35.552Z,148.76
2023-05-24T05:22:05.820Z,134.44
2023-05-24T05:22:37.752Z,132.73
2023-05-24T05:23:07.962Z,130.90
2023-05-24T05:23:39.794Z,128.82
2023-05-24T05:24:10.246Z,127.10
2023-05-24T05:24:41.630Z,130.53
2023-05-24T05:25:13.514Z,137.51
2023-05-24T05:25:44.130Z,177.75
2023-05-24T05:26:14.197Z,128.33
2023-05-24T05:26:45.578Z,124.41
2023-05-24T05:27:15.887Z,123.19
2023-05-24T05:27:47.547Z,136.65
2023-05-24T05:28:17.871Z,125.27
2023-05-24T05:28:49.505Z,151.33
2023-05-24T05:29:20.103Z,131.88
2023-05-24T05:29:51.410Z,129.19
2023-05-24T05:30:24.144Z,139.58
2023-05-24T05:30:54.497Z,178.61
2023-05-24T05:31:24.528Z,187.29
2023-05-24T05:31:55.602Z,202.95
2023-05-24T05:32:25.844Z,200.39
2023-05-24T05:32:57.862Z,143.99
2023-05-24T05:33:28.025Z,191.70
2023-05-24T05:34:00.362Z,150.47
2023-05-24T05:34:29.764Z,180.44
2023-05-24T05:35:02.821Z,129.68
2023-05-24T05:35:32.773Z,144.36
2023-05-24T05:36:05.021Z,201.61
2023-05-24T05:36:34.174Z,157.81
2023-05-24T05:37:04.803Z,186.44
2023-05-24T05:37:36.455Z,230.24
2023-05-24T05:38:07.684Z,227.66
2023-05-24T05:38:38.495Z,236.35
2023-05-24T05:39:08.836Z,240.27
2023-05-24T05:39:40.491Z,238.92
2023-05-24T05:40:11.325Z,243.32
2023-05-24T05:40:44.786Z,223.75
2023-05-24T05:41:12.898Z,212.13
2023-05-24T05:41:45.875Z,247.61
2023-05-24T05:42:15.281Z,246.39
2023-05-24T05:42:46.488Z,202.59
2023-05-24T05:43:16.860Z,208.22
2023-05-24T05:43:48.526Z,238.56
2023-05-24T05:44:18.734Z,252.38
2023-05-24T05:44:50.748Z,227.66
2023-05-24T05:45:21.763Z,256.29
2023-05-24T05:45:53.670Z,222.04
2023-05-24T05:46:23.211Z,243.69
2023-05-24T05:46:54.582Z,237.21
2023-05-24T05:47:24.869Z,191.21
2023-05-24T05:47:56.584Z,215.92
2023-05-24T05:48:26.828Z,193.90
2023-05-24T05:48:58.996Z,248.95
2023-05-24T05:49:28.763Z,241.98
2023-05-24T05:50:00.518Z,166.99
2023-05-24T05:50:31.306Z,246.39
2023-05-24T05:51:09.568Z,246.39
2023-05-24T05:51:33.845Z,234.64
2023-05-24T05:52:04.013Z,160.51
2023-05-24T05:52:36.098Z,259.84
2023-05-24T05:53:05.866Z,232.93
2023-05-24T05:53:37.612Z,206.38
2023-05-24T05:54:08.384Z,197.81
2023-05-24T05:54:39.557Z,228.52
2023-05-24T05:55:10.363Z,234.64
2023-05-24T05:55:41.561Z,260.69
2023-05-24T05:56:12.798Z,242.47
2023-05-24T05:56:44.149Z,257.64
2023-05-24T05:57:14.222Z,211.64
2023-05-24T05:57:45.503Z,256.78
2023-05-24T05:58:16.497Z,267.18
2023-05-24T05:58:47.521Z,261.55
2023-05-24T05:59:17.790Z,258.98
2023-05-24T05:59:49.612Z,263.76
2023-05-24T06:00:21.168Z,265.47
2023-05-24T06:00:54.130Z,268.03
2023-05-24T06:01:22.826Z,270.24
2023-05-24T06:01:53.412Z,272.32
2023-05-24T06:02:23.893Z,271.10
2023-05-24T06:02:54.896Z,271.10
2023-05-24T06:03:27.182Z,273.66
2023-05-24T06:03:56.866Z,275.37
2023-05-24T06:04:28.556Z,278.93
2023-05-24T06:04:59.503Z,278.07
2023-05-24T06:05:30.909Z,277.09
2023-05-24T06:06:00.990Z,275.86
2023-05-24T06:06:33.495Z,275.37
2023-05-24T06:07:03.464Z,275.01
2023-05-24T06:07:35.281Z,273.66
2023-05-24T06:08:04.841Z,272.81
2023-05-24T06:08:37.524Z,273.66
2023-05-24T06:09:06.841Z,278.44
2023-05-24T06:09:38.545Z,279.78
2023-05-24T06:10:09.397Z,282.35
2023-05-24T06:10:40.756Z,284.06
2023-05-24T06:11:10.800Z,289.69
2023-05-24T06:11:43.673Z,294.10
2023-05-24T06:12:12.874Z,297.15
2023-05-24T06:12:44.593Z,300.09
2023-05-24T06:13:14.745Z,306.20
2023-05-24T06:13:46.867Z,302.78
2023-05-24T06:14:17.156Z,299.23
2023-05-24T06:14:48.707Z,293.61
2023-05-24T06:15:19.720Z,304.00
2023-05-24T06:15:50.682Z,307.92
2023-05-24T06:16:20.780Z,310.61
2023-05-24T06:16:54.691Z,315.38
2023-05-24T06:17:23.119Z,316.24
2023-05-24T06:17:54.521Z,317.46
2023-05-24T06:18:25.490Z,320.15
2023-05-24T06:19:05.573Z,317.95
2023-05-24T06:19:26.824Z,318.32
2023-05-24T06:19:58.620Z,318.32
2023-05-24T06:20:42.622Z,321.01
2023-05-24T06:21:01.429Z,320.15
2023-05-24T06:21:30.768Z,318.81
2023-05-24T06:22:09.314Z,318.81
2023-05-24T06:22:33.457Z,317.95
2023-05-24T06:23:03.786Z,321.01
2023-05-24T06:23:36.955Z,325.78
2023-05-24T06:24:05.835Z,330.06
2023-05-24T06:24:37.730Z,333.12
2023-05-24T06:25:09.347Z,334.47
2023-05-24T06:25:39.436Z,339.23
2023-05-24T06:26:09.802Z,343.52
2023-05-24T06:26:41.697Z,352.57
2023-05-24T06:27:12.733Z,357.34
2023-05-24T06:27:44.881Z,359.18
2023-05-24T06:28:14.030Z,358.69
2023-05-24T06:28:45.618Z,361.25
2023-05-24T06:29:15.977Z,357.83
2023-05-24T06:29:47.616Z,361.25
2023-05-24T06:30:20.283Z,365.17
2023-05-24T06:30:49.495Z,369.57
2023-05-24T06:31:19.871Z,371.29
2023-05-24T06:31:51.911Z,373.49
2023-05-24T06:32:22.920Z,377.40
2023-05-24T06:32:53.508Z,379.98
2023-05-24T06:33:23.790Z,383.40
2023-05-24T06:34:03.837Z,391.23
2023-05-24T06:34:25.811Z,389.88
2023-05-24T06:34:57.458Z,392.57
2023-05-24T06:35:28.513Z,388.17
2023-05-24T06:35:59.513Z,386.46
2023-05-24T06:36:29.739Z,350.00
2023-05-24T06:37:01.631Z,386.95
2023-05-24T06:37:32.782Z,386.46
2023-05-24T06:38:03.915Z,386.09
2023-05-24T06:38:34.521Z,304.86
2023-05-24T06:39:05.482Z,315.38
2023-05-24T06:39:35.776Z,192.56
2023-05-24T06:40:08.279Z,179.10
2023-05-24T06:40:41.019Z,178.24
2023-05-24T06:41:10.240Z,179.10
2023-05-24T06:41:39.779Z,179.95
2023-05-24T06:42:11.471Z,182.53
2023-05-24T06:42:42.744Z,184.36
2023-05-24T06:43:13.677Z,187.29